createdAt,value
2022-10-02T00:00:55.052Z,6.30
2022-10-02T00:03:37.889Z,4.00
2022-10-02T00:06:24.963Z,6.40
2022-10-02T00:08:59.895Z,6.50
2022-10-02T00:11:44.131Z,4.70
2022-10-02T00:14:16.981Z,4.70
2022-10-02T00:16:52.154Z,5.80
2022-10-02T00:19:20.512Z,7.10
2022-10-02T00:22:06.592Z,4.80
2022-10-02T00:24:46.602Z,5.50
2022-10-02T00:27:27.054Z,4.90
2022-10-02T00:30:00.192Z,4.40
2022-10-02T00:32:41.498Z,3.90
2022-10-02T00:38:03.045Z,6.50
2022-10-02T00:40:46.140Z,6.20
2022-10-02T00:43:17.417Z,6.80
2022-10-02T00:45:51.554Z,4.40
2022-10-02T00:48:19.778Z,5.20
2022-10-02T00:51:13.146Z,4.00
2022-10-02T00:53:49.795Z,6.00
2022-10-02T00:56:42.047Z,5.80
2022-10-02T00:59:37.932Z,5.40
2022-10-02T01:05:50.011Z,5.00
2022-10-02T01:08:19.550Z,4.90
2022-10-02T01:10:48.197Z,5.60
2022-10-02T01:13:16.281Z,5.30
2022-10-02T01:15:51.449Z,4.80
2022-10-02T01:18:19.659Z,5.60
2022-10-02T01:20:54.832Z,4.70
2022-10-02T01:23:53.744Z,5.40
2022-10-02T01:26:21.903Z,5.80
2022-10-02T01:28:50.113Z,5.50
2022-10-02T01:31:18.420Z,5.20
2022-10-02T01:33:49.905Z,4.50
2022-10-02T01:36:18.350Z,5.00
2022-10-02T01:38:49.377Z,7.00
2022-10-02T01:43:50.844Z,6.80
2022-10-02T01:46:31.975Z,5.80
2022-10-02T01:49:21.556Z,6.80
2022-10-02T01:52:04.808Z,5.40
2022-10-02T01:55:11.233Z,5.20
2022-10-02T01:57:59.835Z,4.70
2022-10-02T02:00:36.935Z,6.10
2022-10-02T02:03:14.872Z,4.50
2022-10-02T02:05:56.706Z,5.10
2022-10-02T02:08:30.940Z,5.70
2022-10-02T02:11:11.654Z,4.90
2022-10-02T02:13:45.887Z,7.20
2022-10-02T02:16:36.530Z,7.10
2022-10-02T02:19:31.301Z,5.30
2022-10-02T02:22:04.312Z,6.70
2022-10-02T02:24:44.708Z,6.60
2022-10-02T02:27:19.670Z,4.90
2022-10-02T02:29:52.631Z,5.90
2022-10-02T02:32:28.307Z,4.20
2022-10-02T02:35:20.798Z,6.10
2022-10-02T02:37:52.659Z,5.10
2022-10-02T02:40:26.249Z,4.00
2022-10-02T02:43:03.496Z,4.50
2022-10-02T02:45:45.816Z,3.80
2022-10-02T02:48:25.868Z,4.70
2022-10-02T02:51:03.922Z,3.10
2022-10-02T02:53:35.309Z,4.00
2022-10-02T02:56:06.850Z,3.80
2022-10-02T02:58:51.541Z,2.80
2022-10-02T03:01:19.987Z,7.90
2022-10-02T03:03:48.496Z,2.90
2022-10-02T03:06:17.496Z,3.20
2022-10-02T03:08:47.814Z,3.00
2022-10-02T03:11:30.977Z,3.50
2022-10-02T03:14:20.661Z,4.70
2022-10-02T03:17:07.427Z,3.90
2022-10-02T03:19:41.781Z,4.20
2022-10-02T03:22:24.106Z,3.80
2022-10-02T03:24:54.922Z,4.50
2022-10-02T03:27:52.110Z,5.10
2022-10-02T03:30:24.508Z,4.50
2022-10-02T03:32:53.840Z,6.20
2022-10-02T03:35:25.291Z,4.10
2022-10-02T03:37:58.050Z,5.60
2022-10-02T03:40:27.503Z,4.20
2022-10-02T03:42:58.528Z,4.10
2022-10-02T03:45:49.948Z,4.50
2022-10-02T03:48:18.186Z,4.00
2022-10-02T03:50:46.805Z,4.40
2022-10-02T03:53:17.371Z,4.00
2022-10-02T03:55:52.549Z,4.70
2022-10-02T03:58:20.892Z,4.00
2022-10-02T04:01:04.466Z,4.20
2022-10-02T04:03:36.949Z,6.00
2022-10-02T04:06:23.569Z,3.20
2022-10-02T04:08:59.915Z,4.30
2022-10-02T04:11:35.548Z,4.80
2022-10-02T04:14:42.833Z,4.00
2022-10-02T04:17:34.377Z,5.00
2022-10-02T04:20:18.665Z,4.40
2022-10-02T04:22:53.455Z,4.10
2022-10-02T04:25:25.555Z,6.80
2022-10-02T04:27:59.115Z,4.80
2022-10-02T04:30:27.518Z,3.30
2022-10-02T04:33:05.925Z,5.50
2022-10-02T04:35:48.939Z,3.40
2022-10-02T04:38:34.366Z,4.70
2022-10-02T04:41:20.574Z,5.50
2022-10-02T04:44:06.546Z,3.50
2022-10-02T04:46:40.611Z,4.80
2022-10-02T04:49:50.425Z,4.90
2022-10-02T04:52:32.695Z,3.30
2022-10-02T04:55:07.431Z,2.80
2022-10-02T04:57:45.046Z,5.00
2022-10-02T05:00:21.995Z,6.20
2022-10-02T05:02:55.715Z,3.20
2022-10-02T05:05:54.584Z,4.70
2022-10-02T05:08:50.331Z,3.90
2022-10-02T05:11:33.179Z,5.10
2022-10-02T05:14:09.301Z,6.90
2022-10-02T05:17:05.228Z,3.80
2022-10-02T05:19:51.062Z,3.20
2022-10-02T05:22:37.548Z,3.60
2022-10-02T05:25:30.144Z,2.60
2022-10-02T05:28:16.853Z,5.10
2022-10-02T05:31:04.321Z,3.90
2022-10-02T05:33:39.140Z,2.80
2022-10-02T05:36:19.376Z,3.60
2022-10-02T05:39:07.536Z,5.10
2022-10-02T05:41:44.395Z,4.30
2022-10-02T05:44:18.427Z,2.90
2022-10-02T05:47:01.767Z,3.70
2022-10-02T05:49:36.092Z,3.60
2022-10-02T05:52:11.884Z,5.10
2022-10-02T05:55:16.948Z,4.70
2022-10-02T05:57:54.172Z,4.90
2022-10-02T06:00:48.179Z,3.00
2022-10-02T06:03:35.263Z,5.20
2022-10-02T06:06:15.746Z,3.20
2022-10-02T06:08:52.005Z,4.80
2022-10-02T06:11:54.735Z,2.80
2022-10-02T06:14:39.609Z,4.80
2022-10-02T06:17:16.580Z,5.30
2022-10-02T06:20:03.388Z,6.70
2022-10-02T06:22:52.187Z,5.80
2022-10-02T06:25:28.963Z,3.10
2022-10-02T06:28:09.789Z,6.10
2022-10-02T06:30:41.889Z,4.10
2022-10-02T06:33:19.304Z,6.10
2022-10-02T06:35:53.219Z,6.60
2022-10-02T06:38:52.156Z,6.00
2022-10-02T06:41:33.640Z,3.50
2022-10-02T06:44:26.817Z,5.60
2022-10-02T06:47:22.303Z,5.00
2022-10-02T06:50:13.420Z,9.30
2022-10-02T06:53:12.051Z,5.00
2022-10-02T06:56:05.733Z,4.90
2022-10-02T06:58:55.642Z,7.20
2022-10-02T07:01:47.162Z,5.20
2022-10-02T07:04:21.345Z,5.10
2022-10-02T07:07:12.899Z,8.20
2022-10-02T07:10:14.552Z,4.20
2022-10-02T07:12:57.882Z,6.20
2022-10-02T07:15:57.206Z,7.10
2022-10-02T07:18:49.469Z,4.70
2022-10-02T07:21:41.974Z,3.40
2022-10-02T07:24:51.882Z,3.80
2022-10-02T07:27:23.645Z,6.30
2022-10-02T07:29:52.062Z,5.80
2022-10-02T07:32:38.427Z,5.00
2022-10-02T07:35:33.937Z,6.30
2022-10-02T07:38:21.148Z,4.00
2022-10-02T07:41:07.690Z,4.90
2022-10-02T07:43:52.234Z,6.40
2022-10-02T07:46:54.778Z,4.60
2022-10-02T07:49:41.700Z,5.00
2022-10-02T07:52:28.019Z,5.80
2022-10-02T07:55:14.723Z,6.00
2022-10-02T07:58:08.667Z,4.70
2022-10-02T08:00:52.962Z,6.20
2022-10-02T08:03:25.974Z,6.10
2022-10-02T08:05:56.106Z,6.40
2022-10-02T08:08:55.606Z,6.80
2022-10-02T08:11:30.399Z,7.50
2022-10-02T08:14:18.271Z,5.30
2022-10-02T08:16:50.808Z,5.00
2022-10-02T08:19:39.570Z,5.00
2022-10-02T08:22:22.656Z,6.00
2022-10-02T08:25:28.582Z,5.40
2022-10-02T08:28:02.299Z,7.40
2022-10-02T08:30:30.548Z,5.20
2022-10-02T08:32:59.133Z,6.30
2022-10-02T08:35:47.907Z,6.80
2022-10-02T08:38:33.745Z,11.10
2022-10-02T08:41:05.163Z,6.10
2022-10-02T08:43:39.217Z,4.10
2022-10-02T08:46:29.181Z,8.60
2022-10-02T08:49:33.806Z,4.90
2022-10-02T08:52:11.044Z,5.20
2022-10-02T08:54:49.639Z,7.30
2022-10-02T08:57:36.143Z,6.00
2022-10-02T09:00:33.976Z,6.00
2022-10-02T09:03:31.141Z,5.60
2022-10-02T09:06:38.806Z,6.70
2022-10-02T09:09:47.976Z,5.10
2022-10-02T09:13:13.690Z,9.60
2022-10-02T09:15:48.379Z,5.40
2022-10-02T09:18:18.351Z,6.50
2022-10-02T09:20:55.211Z,10.00
2022-10-02T09:24:00.532Z,8.10
2022-10-02T09:26:56.562Z,6.60
2022-10-02T09:30:04.284Z,4.30
2022-10-02T09:32:47.559Z,6.30
2022-10-02T09:35:37.183Z,8.50
2022-10-02T09:38:59.688Z,5.60
2022-10-02T09:41:50.180Z,6.40
2022-10-02T09:45:11.837Z,5.50
2022-10-02T09:48:11.108Z,4.40
2022-10-02T09:50:47.877Z,6.40
2022-10-02T09:53:40.237Z,6.60
2022-10-02T09:56:23.587Z,6.20
2022-10-02T09:59:09.988Z,6.10
2022-10-02T10:02:15.867Z,5.40
2022-10-02T10:05:08.962Z,6.60
2022-10-02T10:07:58.657Z,7.40
2022-10-02T10:10:50.202Z,7.60
2022-10-02T10:13:49.576Z,6.20
2022-10-02T10:17:05.759Z,11.10
2022-10-02T10:20:19.887Z,8.70
2022-10-02T10:23:18.744Z,5.00
2022-10-02T10:26:15.400Z,4.60
2022-10-02T10:28:46.314Z,6.40
2022-10-02T10:31:43.820Z,5.60
2022-10-02T10:34:30.298Z,5.70
2022-10-02T10:37:26.904Z,4.40
2022-10-02T10:40:37.192Z,7.10
2022-10-02T10:43:44.917Z,4.50
2022-10-02T10:46:21.558Z,3.90
2022-10-02T10:49:10.518Z,5.70
2022-10-02T10:51:51.681Z,5.80
2022-10-02T10:57:26.038Z,7.00
2022-10-02T11:00:30.941Z,5.10
2022-10-02T11:03:40.212Z,6.20
2022-10-02T11:06:23.232Z,8.30
2022-10-02T11:08:58.523Z,8.30
2022-10-02T11:11:31.670Z,9.00
2022-10-02T11:14:41.280Z,6.40
2022-10-02T11:17:54.237Z,7.30
2022-10-02T11:20:45.843Z,5.60
2022-10-02T11:23:34.030Z,7.10
2022-10-02T11:26:16.727Z,6.80
2022-10-02T11:29:19.957Z,4.80
2022-10-02T11:31:53.801Z,4.80
2022-10-02T11:34:59.579Z,7.70
2022-10-02T11:38:04.115Z,5.80
2022-10-02T11:40:54.456Z,6.10
2022-10-02T11:43:44.287Z,6.40
2022-10-02T11:46:19.443Z,5.00
2022-10-02T11:49:12.680Z,7.70
2022-10-02T11:51:57.140Z,6.60
2022-10-02T11:54:45.018Z,5.60
2022-10-02T11:57:35.370Z,3.80
2022-10-02T12:00:08.798Z,5.80
2022-10-02T12:03:10.894Z,6.40
2022-10-02T12:05:53.547Z,6.00
2022-10-02T12:09:02.455Z,6.50
2022-10-02T12:12:06.419Z,6.40
2022-10-02T12:14:35.087Z,4.00
2022-10-02T12:17:24.605Z,6.30
2022-10-02T12:20:24.062Z,5.00
2022-10-02T12:23:22.888Z,8.50
2022-10-02T12:26:33.217Z,5.70
2022-10-02T12:29:10.245Z,5.60
2022-10-02T12:31:54.693Z,5.50
2022-10-02T12:34:44.583Z,4.80
2022-10-02T12:37:25.317Z,7.90
2022-10-02T12:40:06.397Z,8.10
2022-10-02T12:42:46.676Z,7.50
2022-10-02T12:45:38.604Z,3.50
2022-10-02T12:48:15.184Z,4.70
2022-10-02T12:51:05.984Z,3.40
2022-10-02T12:56:36.345Z,5.70
2022-10-02T12:59:10.754Z,4.70
2022-10-02T13:02:12.629Z,6.50
2022-10-02T13:05:23.447Z,4.20
2022-10-02T13:08:10.400Z,6.20
2022-10-02T13:11:04.015Z,6.90
2022-10-02T13:14:00.698Z,6.50
2022-10-02T13:16:48.806Z,5.90
2022-10-02T13:19:31.151Z,2.40
2022-10-02T13:22:20.263Z,4.40
2022-10-02T13:25:00.557Z,3.90
2022-10-02T13:27:42.355Z,8.20
2022-10-02T13:30:16.285Z,5.10
2022-10-02T13:33:06.170Z,5.70
2022-10-02T13:35:55.955Z,4.10
2022-10-02T13:38:24.820Z,6.50
2022-10-02T13:41:24.960Z,6.20
2022-10-02T13:44:07.772Z,5.60
2022-10-02T13:47:00.828Z,5.20
2022-10-02T13:49:47.828Z,4.30
2022-10-02T13:53:04.442Z,5.80
2022-10-02T13:55:41.360Z,8.40
2022-10-02T13:58:12.779Z,5.60
2022-10-02T14:01:08.663Z,5.10
2022-10-02T14:03:55.657Z,4.00
2022-10-02T14:06:34.964Z,3.60
2022-10-02T14:09:23.646Z,3.30
2022-10-02T14:12:13.610Z,3.50
2022-10-02T14:15:00.550Z,6.30
2022-10-02T14:17:51.429Z,5.00
2022-10-02T14:20:29.029Z,4.40
2022-10-02T14:23:32.391Z,3.70
2022-10-02T14:26:28.082Z,4.00
2022-10-02T14:29:20.277Z,6.00
2022-10-02T14:32:21.215Z,6.20
2022-10-02T14:35:20.095Z,7.50
2022-10-02T14:38:12.396Z,5.10
2022-10-02T14:40:53.998Z,4.70
2022-10-02T14:43:46.087Z,6.80
2022-10-02T14:46:20.930Z,7.80
2022-10-02T14:49:07.919Z,6.50
2022-10-02T14:52:04.017Z,9.10
2022-10-02T14:54:38.098Z,5.30
2022-10-02T14:57:28.577Z,4.80
2022-10-02T15:00:03.406Z,7.70
2022-10-02T15:03:02.232Z,5.90
2022-10-02T15:05:59.766Z,6.30
2022-10-02T15:08:34.298Z,7.00
2022-10-02T15:11:05.311Z,4.80
2022-10-02T15:13:58.136Z,6.20
2022-10-02T15:16:53.644Z,5.40
2022-10-02T15:19:31.370Z,6.70
2022-10-02T15:22:07.371Z,5.00
2022-10-02T15:24:45.824Z,4.30
2022-10-02T15:27:22.931Z,4.60
2022-10-02T15:30:16.939Z,5.40
2022-10-02T15:33:07.446Z,4.40
2022-10-02T15:36:15.475Z,7.90
2022-10-02T15:39:20.761Z,4.50
2022-10-02T15:42:04.760Z,4.90
2022-10-02T15:44:57.837Z,7.30
2022-10-02T15:47:40.902Z,4.20
2022-10-02T15:50:32.761Z,5.80
2022-10-02T15:53:04.023Z,4.90
2022-10-02T15:55:38.986Z,6.80
2022-10-02T15:58:07.142Z,8.50
2022-10-02T16:01:02.900Z,3.40
2022-10-02T16:03:50.915Z,4.80
2022-10-02T16:06:50.817Z,13.00
2022-10-02T16:09:34.861Z,5.20
2022-10-02T16:12:12.012Z,13.10
2022-10-02T16:15:03.219Z,18.00
2022-10-02T16:17:41.452Z,27.20
2022-10-02T16:23:14.271Z,22.80
2022-10-02T16:26:35.284Z,20.40
2022-10-02T16:31:52.065Z,25.70
2022-10-02T16:34:39.249Z,55.50
2022-10-02T16:37:34.284Z,31.10
2022-10-02T16:40:28.516Z,26.20
2022-10-02T16:43:57.929Z,16.60
2022-10-02T16:51:44.575Z,9.90
2022-10-02T16:54:57.789Z,6.00
2022-10-02T16:58:28.735Z,6.70
2022-10-02T17:05:11.742Z,6.70
2022-10-02T17:08:02.002Z,8.50
2022-10-02T17:10:33.918Z,9.20
2022-10-02T17:13:29.334Z,8.00
2022-10-02T17:16:11.954Z,9.00
2022-10-02T17:18:54.798Z,9.10
2022-10-02T17:21:45.448Z,9.10
2022-10-02T17:24:51.704Z,8.80
2022-10-02T17:27:35.502Z,7.40
2022-10-02T17:30:27.118Z,5.60
2022-10-02T17:33:20.268Z,6.20
2022-10-02T17:35:54.367Z,4.40
2022-10-02T17:38:25.748Z,5.50
2022-10-02T17:41:09.110Z,5.50
2022-10-02T17:43:53.488Z,8.20
2022-10-02T17:46:42.811Z,4.50
2022-10-02T17:49:23.037Z,5.80
2022-10-02T17:52:34.579Z,5.60
2022-10-02T17:55:40.205Z,7.20
2022-10-02T17:58:32.776Z,7.70
2022-10-02T18:01:07.510Z,6.30
2022-10-02T18:03:53.758Z,5.80
2022-10-02T18:06:38.292Z,3.80
2022-10-02T18:09:24.617Z,4.50
2022-10-02T18:12:01.799Z,5.90
2022-10-02T18:14:48.622Z,3.50
2022-10-02T18:17:38.470Z,3.90
2022-10-02T18:20:34.268Z,5.10
2022-10-02T18:23:20.775Z,4.90
2022-10-02T18:26:14.345Z,3.70
2022-10-02T18:29:03.708Z,4.40
2022-10-02T18:31:57.977Z,3.90
2022-10-02T18:34:29.265Z,6.60
2022-10-02T18:37:20.268Z,5.70
2022-10-02T18:40:03.543Z,6.80
2022-10-02T18:43:08.097Z,6.00
2022-10-02T18:45:57.770Z,6.70
2022-10-02T18:48:44.129Z,5.70
2022-10-02T18:51:31.950Z,7.20
2022-10-02T18:54:19.129Z,6.30
2022-10-02T18:57:13.107Z,5.80
2022-10-02T18:59:59.386Z,5.50
2022-10-02T19:02:53.820Z,5.40
2022-10-02T19:05:31.125Z,5.60
2022-10-02T19:08:05.102Z,5.50
2022-10-02T19:10:33.458Z,6.30
2022-10-02T19:13:23.449Z,6.80
2022-10-02T19:15:54.430Z,6.40
2022-10-02T19:18:27.805Z,6.60
2022-10-02T19:20:55.942Z,6.20
2022-10-02T19:23:56.657Z,7.00
2022-10-02T19:26:28.032Z,7.10
2022-10-02T19:29:25.434Z,6.10
2022-10-02T19:31:57.803Z,6.40
2022-10-02T19:34:31.798Z,5.20
2022-10-02T19:37:05.171Z,7.50
2022-10-02T19:39:41.571Z,8.80
2022-10-02T19:42:17.019Z,6.30
2022-10-02T19:44:49.849Z,7.00
2022-10-02T19:47:32.523Z,6.30
2022-10-02T19:50:04.039Z,7.20
2022-10-02T19:52:47.814Z,9.40
2022-10-02T19:55:21.943Z,6.90
2022-10-02T19:57:54.385Z,6.50
2022-10-02T20:00:22.986Z,7.50
2022-10-02T20:02:56.124Z,5.40
2022-10-02T20:05:27.482Z,5.90
2022-10-02T20:08:07.017Z,8.40
2022-10-02T20:10:40.103Z,6.20
2022-10-02T20:13:37.260Z,8.30
2022-10-02T20:16:41.372Z,4.80
2022-10-02T20:19:31.927Z,5.20
2022-10-02T20:22:07.803Z,6.60
2022-10-02T20:24:58.719Z,7.00
2022-10-02T20:27:48.420Z,5.60
2022-10-02T20:30:19.535Z,6.80
2022-10-02T20:32:54.502Z,6.60
2022-10-02T20:35:34.881Z,6.20
2022-10-02T20:38:31.618Z,7.50
2022-10-02T20:41:07.243Z,6.90
2022-10-02T20:43:49.633Z,6.20
2022-10-02T20:46:55.021Z,6.80
2022-10-02T20:49:40.540Z,7.40
2022-10-02T20:52:49.338Z,6.60
2022-10-02T20:55:23.553Z,7.70
2022-10-02T20:58:22.614Z,6.60
2022-10-02T21:01:16.379Z,8.00
2022-10-02T21:04:26.539Z,8.90
2022-10-02T21:07:19.539Z,9.50
2022-10-02T21:10:12.475Z,7.70
2022-10-02T21:13:24.391Z,6.60
2022-10-02T21:16:25.388Z,9.70
2022-10-02T21:19:05.646Z,7.60
2022-10-02T21:22:05.453Z,7.10
2022-10-02T21:24:36.314Z,8.30
2022-10-02T21:27:18.607Z,7.10
2022-10-02T21:30:04.158Z,9.80
2022-10-02T21:32:49.415Z,6.80
2022-10-02T21:35:42.597Z,9.70
2022-10-02T21:38:32.387Z,8.90
2022-10-02T21:41:19.706Z,7.30
2022-10-02T21:44:28.744Z,9.00
2022-10-02T21:47:21.375Z,6.90
2022-10-02T21:50:10.817Z,6.80
2022-10-02T21:53:11.416Z,7.80
2022-10-02T21:56:08.795Z,9.20
2022-10-02T21:58:52.098Z,9.60
2022-10-02T22:02:07.630Z,7.60
2022-10-02T22:04:55.395Z,7.60
2022-10-02T22:07:41.254Z,10.30
2022-10-02T22:10:15.249Z,7.00
2022-10-02T22:13:11.322Z,10.00
2022-10-02T22:15:51.109Z,6.90
2022-10-02T22:18:25.301Z,7.20
2022-10-02T22:21:09.173Z,6.60
2022-10-02T22:24:06.628Z,9.60
2022-10-02T22:26:53.327Z,8.00
2022-10-02T22:29:41.497Z,9.20
2022-10-02T22:33:06.263Z,7.30
2022-10-02T22:35:53.119Z,7.90
2022-10-02T22:38:38.248Z,8.30
2022-10-02T22:41:17.955Z,6.30
2022-10-02T22:44:10.658Z,9.20
2022-10-02T22:47:04.699Z,8.90
2022-10-02T22:49:38.973Z,6.50
2022-10-02T22:52:28.999Z,7.50
2022-10-02T22:55:24.479Z,6.60
2022-10-02T22:57:58.695Z,9.30
2022-10-02T23:00:34.149Z,10.20
2022-10-02T23:03:15.159Z,9.30
2022-10-02T23:06:31.566Z,7.90
2022-10-02T23:09:31.634Z,8.90
2022-10-02T23:12:15.401Z,7.50
2022-10-02T23:14:49.679Z,8.30
2022-10-02T23:17:50.660Z,6.30
2022-10-02T23:20:29.067Z,7.40
2022-10-02T23:23:08.397Z,9.70
2022-10-02T23:25:47.188Z,8.50
2022-10-02T23:28:15.727Z,7.70
2022-10-02T23:30:49.003Z,6.90
2022-10-02T23:33:37.331Z,6.70
2022-10-02T23:36:19.927Z,7.30
2022-10-02T23:38:59.505Z,11.10
2022-10-02T23:41:40.767Z,6.50
2022-10-02T23:44:32.303Z,6.20
2022-10-02T23:47:25.340Z,8.00
2022-10-02T23:49:54.777Z,9.10
2022-10-02T23:52:33.378Z,9.20
2022-10-02T23:55:14.289Z,6.30
